sensor_id;sensor_type;location;lat;lon;timestamp;P1;durP1;ratioP1;P2;durP2;ratioP2
22752;SDS011;11543;43.144;24.684;2022-09-13T00:00:16;6.05;;;2.03;;
22752;SDS011;11543;43.144;24.684;2022-09-13T00:02:42;2.95;;;1.83;;
22752;SDS011;11543;43.144;24.684;2022-09-13T00:05:07;3.63;;;2.17;;
22752;SDS011;11543;43.144;24.684;2022-09-13T00:07:33;2.80;;;2.10;;
22752;SDS011;11543;43.144;24.684;2022-09-13T00:09:58;3.17;;;1.95;;
22752;SDS011;11543;43.144;24.684;2022-09-13T00:12:24;2.88;;;1.60;;
22752;SDS011;11543;43.144;24.684;2022-09-13T00:14:49;2.70;;;2.10;;
22752;SDS011;11543;43.144;24.684;2022-09-13T00:17:15;2.97;;;1.98;;
22752;SDS011;11543;43.144;24.684;2022-09-13T00:19:41;3.72;;;2.15;;
22752;SDS011;11543;43.144;24.684;2022-09-13T00:22:06;2.53;;;1.70;;
22752;SDS011;11543;43.144;24.684;2022-09-13T00:24:32;4.22;;;2.10;;
22752;SDS011;11543;43.144;24.684;2022-09-13T00:26:58;3.33;;;1.98;;
22752;SDS011;11543;43.144;24.684;2022-09-13T00:29:27;3.00;;;2.13;;
22752;SDS011;11543;43.144;24.684;2022-09-13T00:31:53;4.65;;;1.98;;
22752;SDS011;11543;43.144;24.684;2022-09-13T00:34:18;3.72;;;2.00;;
22752;SDS011;11543;43.144;24.684;2022-09-13T00:36:44;3.40;;;1.67;;
22752;SDS011;11543;43.144;24.684;2022-09-13T00:39:10;3.10;;;1.83;;
22752;SDS011;11543;43.144;24.684;2022-09-13T00:41:36;2.13;;;1.70;;
22752;SDS011;11543;43.144;24.684;2022-09-13T00:44:02;3.10;;;2.00;;
22752;SDS011;11543;43.144;24.684;2022-09-13T00:46:47;2.97;;;1.80;;
22752;SDS011;11543;43.144;24.684;2022-09-13T00:51:57;29.08;;;23.42;;
22752;SDS011;11543;43.144;24.684;2022-09-13T00:54:26;15.32;;;12.88;;
22752;SDS011;11543;43.144;24.684;2022-09-13T00:56:57;14.82;;;11.23;;
22752;SDS011;11543;43.144;24.684;2022-09-13T00:59:36;11.18;;;8.18;;
22752;SDS011;11543;43.144;24.684;2022-09-13T01:02:11;8.70;;;6.28;;
22752;SDS011;11543;43.144;24.684;2022-09-13T01:04:38;10.63;;;8.38;;
22752;SDS011;11543;43.144;24.684;2022-09-13T01:07:07;12.30;;;5.90;;
22752;SDS011;11543;43.144;24.684;2022-09-13T01:09:36;7.97;;;4.30;;
22752;SDS011;11543;43.144;24.684;2022-09-13T01:14:49;6.38;;;4.68;;
22752;SDS011;11543;43.144;24.684;2022-09-13T01:17:16;6.82;;;5.25;;
22752;SDS011;11543;43.144;24.684;2022-09-13T01:19:42;6.45;;;3.40;;
22752;SDS011;11543;43.144;24.684;2022-09-13T01:22:17;5.82;;;3.40;;
22752;SDS011;11543;43.144;24.684;2022-09-13T01:24:54;5.88;;;3.28;;
22752;SDS011;11543;43.144;24.684;2022-09-13T01:27:56;5.88;;;2.90;;
22752;SDS011;11543;43.144;24.684;2022-09-13T01:31:09;5.05;;;2.85;;
22752;SDS011;11543;43.144;24.684;2022-09-13T01:35:50;4.10;;;2.00;;
22752;SDS011;11543;43.144;24.684;2022-09-13T01:41:17;3.42;;;2.10;;
22752;SDS011;11543;43.144;24.684;2022-09-13T01:43:56;2.50;;;2.00;;
22752;SDS011;11543;43.144;24.684;2022-09-13T01:49:21;4.82;;;2.13;;
22752;SDS011;11543;43.144;24.684;2022-09-13T01:54:56;4.90;;;2.80;;
22752;SDS011;11543;43.144;24.684;2022-09-13T01:57:30;3.83;;;3.03;;
22752;SDS011;11543;43.144;24.684;2022-09-13T02:00:06;3.88;;;2.50;;
22752;SDS011;11543;43.144;24.684;2022-09-13T02:08:07;4.32;;;2.30;;
22752;SDS011;11543;43.144;24.684;2022-09-13T02:10:38;3.85;;;2.28;;
22752;SDS011;11543;43.144;24.684;2022-09-13T02:13:09;3.92;;;2.20;;
22752;SDS011;11543;43.144;24.684;2022-09-13T02:18:14;2.97;;;2.05;;
22752;SDS011;11543;43.144;24.684;2022-09-13T02:20:57;3.40;;;1.92;;
22752;SDS011;11543;43.144;24.684;2022-09-13T02:23:31;8.38;;;2.30;;
22752;SDS011;11543;43.144;24.684;2022-09-13T02:26:02;6.72;;;2.40;;
22752;SDS011;11543;43.144;24.684;2022-09-13T02:28:35;4.75;;;2.17;;
22752;SDS011;11543;43.144;24.684;2022-09-13T02:31:08;3.58;;;1.90;;
22752;SDS011;11543;43.144;24.684;2022-09-13T02:33:50;4.50;;;1.77;;
22752;SDS011;11543;43.144;24.684;2022-09-13T02:36:21;2.60;;;1.98;;
22752;SDS011;11543;43.144;24.684;2022-09-13T02:38:59;5.22;;;2.25;;
22752;SDS011;11543;43.144;24.684;2022-09-13T02:44:51;3.15;;;2.13;;
22752;SDS011;11543;43.144;24.684;2022-09-13T02:58:13;4.90;;;1.98;;
22752;SDS011;11543;43.144;24.684;2022-09-13T03:00:55;5.40;;;2.15;;
22752;SDS011;11543;43.144;24.684;2022-09-13T03:03:20;3.17;;;1.90;;
22752;SDS011;11543;43.144;24.684;2022-09-13T03:05:46;5.63;;;2.03;;
22752;SDS011;11543;43.144;24.684;2022-09-13T03:08:11;4.18;;;1.92;;
22752;SDS011;11543;43.144;24.684;2022-09-13T03:10:50;2.67;;;1.92;;
22752;SDS011;11543;43.144;24.684;2022-09-13T03:25:08;4.93;;;2.20;;
22752;SDS011;11543;43.144;24.684;2022-09-13T03:30:44;3.00;;;1.88;;
22752;SDS011;11543;43.144;24.684;2022-09-13T03:33:19;4.18;;;2.05;;
22752;SDS011;11543;43.144;24.684;2022-09-13T03:35:57;3.88;;;2.15;;
22752;SDS011;11543;43.144;24.684;2022-09-13T03:38:38;3.03;;;2.17;;
22752;SDS011;11543;43.144;24.684;2022-09-13T03:41:09;4.75;;;2.08;;
22752;SDS011;11543;43.144;24.684;2022-09-13T03:43:46;4.57;;;2.05;;
22752;SDS011;11543;43.144;24.684;2022-09-13T03:48:53;5.38;;;2.33;;
22752;SDS011;11543;43.144;24.684;2022-09-13T03:51:20;5.88;;;2.10;;
22752;SDS011;11543;43.144;24.684;2022-09-13T03:53:48;3.55;;;2.20;;
22752;SDS011;11543;43.144;24.684;2022-09-13T03:56:20;4.65;;;2.42;;
22752;SDS011;11543;43.144;24.684;2022-09-13T03:58:46;5.05;;;2.30;;
22752;SDS011;11543;43.144;24.684;2022-09-13T04:01:12;5.40;;;2.20;;
22752;SDS011;11543;43.144;24.684;2022-09-13T04:03:42;5.43;;;2.45;;
22752;SDS011;11543;43.144;24.684;2022-09-13T04:06:08;4.60;;;2.53;;
22752;SDS011;11543;43.144;24.684;2022-09-13T04:08:33;2.95;;;2.40;;
22752;SDS011;11543;43.144;24.684;2022-09-13T04:10:59;4.05;;;2.17;;
22752;SDS011;11543;43.144;24.684;2022-09-13T04:13:25;7.35;;;2.28;;
22752;SDS011;11543;43.144;24.684;2022-09-13T04:15:51;5.65;;;2.33;;
22752;SDS011;11543;43.144;24.684;2022-09-13T04:18:16;4.05;;;2.30;;
22752;SDS011;11543;43.144;24.684;2022-09-13T04:20:42;4.93;;;2.50;;
22752;SDS011;11543;43.144;24.684;2022-09-13T04:23:08;5.20;;;2.58;;
22752;SDS011;11543;43.144;24.684;2022-09-13T04:25:36;4.07;;;2.28;;
22752;SDS011;11543;43.144;24.684;2022-09-13T04:28:03;3.90;;;2.60;;
22752;SDS011;11543;43.144;24.684;2022-09-13T04:30:28;4.47;;;2.38;;
22752;SDS011;11543;43.144;24.684;2022-09-13T04:32:55;7.47;;;2.80;;
22752;SDS011;11543;43.144;24.684;2022-09-13T04:35:24;6.75;;;2.45;;
22752;SDS011;11543;43.144;24.684;2022-09-13T04:37:56;3.85;;;2.38;;
22752;SDS011;11543;43.144;24.684;2022-09-13T04:40:24;4.82;;;2.60;;
22752;SDS011;11543;43.144;24.684;2022-09-13T04:43:10;5.88;;;2.75;;
22752;SDS011;11543;43.144;24.684;2022-09-13T04:45:39;6.55;;;3.13;;
22752;SDS011;11543;43.144;24.684;2022-09-13T04:48:07;3.83;;;2.70;;
22752;SDS011;11543;43.144;24.684;2022-09-13T04:50:35;3.28;;;2.60;;
22752;SDS011;11543;43.144;24.684;2022-09-13T04:53:04;7.43;;;2.65;;
22752;SDS011;11543;43.144;24.684;2022-09-13T04:55:29;6.30;;;2.88;;
22752;SDS011;11543;43.144;24.684;2022-09-13T04:57:55;6.82;;;2.90;;
22752;SDS011;11543;43.144;24.684;2022-09-13T05:00:21;6.03;;;2.60;;
22752;SDS011;11543;43.144;24.684;2022-09-13T05:03:12;5.18;;;2.83;;
22752;SDS011;11543;43.144;24.684;2022-09-13T05:05:38;3.42;;;2.50;;
22752;SDS011;11543;43.144;24.684;2022-09-13T05:08:04;6.50;;;2.70;;
22752;SDS011;11543;43.144;24.684;2022-09-13T05:10:29;6.00;;;3.28;;
22752;SDS011;11543;43.144;24.684;2022-09-13T05:12:55;5.43;;;2.53;;
22752;SDS011;11543;43.144;24.684;2022-09-13T05:15:21;9.32;;;2.92;;
22752;SDS011;11543;43.144;24.684;2022-09-13T05:17:47;5.88;;;2.83;;
22752;SDS011;11543;43.144;24.684;2022-09-13T05:20:12;7.78;;;2.80;;
22752;SDS011;11543;43.144;24.684;2022-09-13T05:22:38;5.25;;;2.60;;
22752;SDS011;11543;43.144;24.684;2022-09-13T05:25:03;4.32;;;2.78;;
22752;SDS011;11543;43.144;24.684;2022-09-13T05:27:29;5.35;;;3.00;;
22752;SDS011;11543;43.144;24.684;2022-09-13T05:29:55;4.13;;;2.88;;
22752;SDS011;11543;43.144;24.684;2022-09-13T05:32:34;7.35;;;3.40;;
22752;SDS011;11543;43.144;24.684;2022-09-13T05:34:59;3.60;;;3.00;;
22752;SDS011;11543;43.144;24.684;2022-09-13T05:37:25;10.90;;;2.90;;
22752;SDS011;11543;43.144;24.684;2022-09-13T05:39:50;5.07;;;2.70;;
22752;SDS011;11543;43.144;24.684;2022-09-13T05:42:22;12.30;;;3.20;;
22752;SDS011;11543;43.144;24.684;2022-09-13T05:44:50;3.85;;;2.78;;
22752;SDS011;11543;43.144;24.684;2022-09-13T05:47:15;7.68;;;2.75;;
22752;SDS011;11543;43.144;24.684;2022-09-13T05:49:41;7.80;;;2.55;;
22752;SDS011;11543;43.144;24.684;2022-09-13T05:52:06;4.00;;;2.65;;
22752;SDS011;11543;43.144;24.684;2022-09-13T05:54:32;5.80;;;2.60;;
22752;SDS011;11543;43.144;24.684;2022-09-13T05:56:58;3.22;;;2.38;;
22752;SDS011;11543;43.144;24.684;2022-09-13T05:59:24;5.88;;;2.42;;
22752;SDS011;11543;43.144;24.684;2022-09-13T06:04:24;2.95;;;2.40;;
22752;SDS011;11543;43.144;24.684;2022-09-13T06:06:50;4.63;;;2.78;;
22752;SDS011;11543;43.144;24.684;2022-09-13T06:09:21;5.15;;;2.30;;
22752;SDS011;11543;43.144;24.684;2022-09-13T06:11:46;6.05;;;2.47;;
22752;SDS011;11543;43.144;24.684;2022-09-13T06:14:12;3.95;;;2.22;;
22752;SDS011;11543;43.144;24.684;2022-09-13T06:16:37;3.50;;;2.30;;
22752;SDS011;11543;43.144;24.684;2022-09-13T06:19:03;4.25;;;2.38;;
22752;SDS011;11543;43.144;24.684;2022-09-13T06:21:28;5.18;;;2.40;;
22752;SDS011;11543;43.144;24.684;2022-09-13T06:23:54;3.58;;;2.78;;
22752;SDS011;11543;43.144;24.684;2022-09-13T06:26:23;5.57;;;2.42;;
22752;SDS011;11543;43.144;24.684;2022-09-13T06:28:51;5.40;;;2.25;;
22752;SDS011;11543;43.144;24.684;2022-09-13T06:31:18;2.45;;;2.08;;
22752;SDS011;11543;43.144;24.684;2022-09-13T06:33:46;4.57;;;2.45;;
22752;SDS011;11543;43.144;24.684;2022-09-13T06:36:14;2.92;;;2.20;;
22752;SDS011;11543;43.144;24.684;2022-09-13T06:38:44;3.10;;;2.10;;
22752;SDS011;11543;43.144;24.684;2022-09-13T06:41:17;6.68;;;2.00;;
22752;SDS011;11543;43.144;24.684;2022-09-13T06:43:46;5.68;;;2.30;;
22752;SDS011;11543;43.144;24.684;2022-09-13T06:46:17;3.97;;;2.42;;
22752;SDS011;11543;43.144;24.684;2022-09-13T06:48:46;5.75;;;2.38;;
22752;SDS011;11543;43.144;24.684;2022-09-13T06:51:17;4.90;;;2.13;;
22752;SDS011;11543;43.144;24.684;2022-09-13T06:53:44;4.75;;;1.90;;
22752;SDS011;11543;43.144;24.684;2022-09-13T06:56:16;4.65;;;2.08;;
22752;SDS011;11543;43.144;24.684;2022-09-13T07:01:38;2.78;;;1.95;;
22752;SDS011;11543;43.144;24.684;2022-09-13T07:04:06;3.63;;;1.90;;
22752;SDS011;11543;43.144;24.684;2022-09-13T07:06:41;3.42;;;1.75;;
22752;SDS011;11543;43.144;24.684;2022-09-13T07:09:10;3.63;;;2.10;;
22752;SDS011;11543;43.144;24.684;2022-09-13T07:11:38;4.50;;;2.00;;
22752;SDS011;11543;43.144;24.684;2022-09-13T07:14:05;3.70;;;1.85;;
22752;SDS011;11543;43.144;24.684;2022-09-13T07:16:32;4.32;;;1.90;;
22752;SDS011;11543;43.144;24.684;2022-09-13T07:19:00;10.00;;;2.10;;
22752;SDS011;11543;43.144;24.684;2022-09-13T07:21:29;6.28;;;2.20;;
22752;SDS011;11543;43.144;24.684;2022-09-13T07:23:55;30.95;;;3.10;;
22752;SDS011;11543;43.144;24.684;2022-09-13T07:26:25;8.68;;;2.15;;
22752;SDS011;11543;43.144;24.684;2022-09-13T07:28:56;5.28;;;2.25;;
22752;SDS011;11543;43.144;24.684;2022-09-13T07:31:24;3.10;;;2.17;;
22752;SDS011;11543;43.144;24.684;2022-09-13T07:33:58;4.93;;;2.05;;
22752;SDS011;11543;43.144;24.684;2022-09-13T07:36:29;4.03;;;1.80;;
22752;SDS011;11543;43.144;24.684;2022-09-13T07:38:56;7.20;;;1.98;;
22752;SDS011;11543;43.144;24.684;2022-09-13T07:41:23;3.95;;;2.20;;
22752;SDS011;11543;43.144;24.684;2022-09-13T07:43:50;2.75;;;1.98;;
22752;SDS011;11543;43.144;24.684;2022-09-13T07:46:17;5.32;;;1.95;;
22752;SDS011;11543;43.144;24.684;2022-09-13T07:48:45;6.28;;;2.08;;
22752;SDS011;11543;43.144;24.684;2022-09-13T07:51:15;5.95;;;2.20;;
22752;SDS011;11543;43.144;24.684;2022-09-13T07:53:45;8.80;;;2.30;;
22752;SDS011;11543;43.144;24.684;2022-09-13T07:56:19;4.10;;;1.85;;
22752;SDS011;11543;43.144;24.684;2022-09-13T07:58:46;4.50;;;1.90;;
22752;SDS011;11543;43.144;24.684;2022-09-13T08:03:43;9.57;;;1.92;;
22752;SDS011;11543;43.144;24.684;2022-09-13T08:06:14;14.45;;;2.45;;
22752;SDS011;11543;43.144;24.684;2022-09-13T08:08:39;7.65;;;2.10;;
22752;SDS011;11543;43.144;24.684;2022-09-13T08:11:05;6.15;;;1.95;;
22752;SDS011;11543;43.144;24.684;2022-09-13T08:13:31;4.68;;;1.90;;
22752;SDS011;11543;43.144;24.684;2022-09-13T08:16:06;3.90;;;1.90;;
22752;SDS011;11543;43.144;24.684;2022-09-13T08:18:33;3.13;;;1.80;;
22752;SDS011;11543;43.144;24.684;2022-09-13T08:21:01;6.15;;;1.70;;
22752;SDS011;11543;43.144;24.684;2022-09-13T08:23:29;5.38;;;2.15;;
22752;SDS011;11543;43.144;24.684;2022-09-13T08:26:01;22.02;;;2.40;;
22752;SDS011;11543;43.144;24.684;2022-09-13T08:28:27;19.70;;;2.10;;
22752;SDS011;11543;43.144;24.684;2022-09-13T08:30:54;4.88;;;1.77;;
22752;SDS011;11543;43.144;24.684;2022-09-13T08:33:19;3.72;;;1.83;;
22752;SDS011;11543;43.144;24.684;2022-09-13T08:35:48;4.45;;;1.65;;
22752;SDS011;11543;43.144;24.684;2022-09-13T08:38:17;4.15;;;1.80;;
22752;SDS011;11543;43.144;24.684;2022-09-13T08:40:48;5.50;;;1.77;;
22752;SDS011;11543;43.144;24.684;2022-09-13T08:43:23;30.23;;;2.15;;
22752;SDS011;11543;43.144;24.684;2022-09-13T08:46:00;10.95;;;2.00;;
22752;SDS011;11543;43.144;24.684;2022-09-13T08:48:35;6.85;;;1.80;;
22752;SDS011;11543;43.144;24.684;2022-09-13T08:51:08;5.63;;;1.67;;
22752;SDS011;11543;43.144;24.684;2022-09-13T08:53:57;3.20;;;1.60;;
22752;SDS011;11543;43.144;24.684;2022-09-13T09:04:44;12.07;;;1.92;;
22752;SDS011;11543;43.144;24.684;2022-09-13T09:07:19;4.30;;;1.73;;
22752;SDS011;11543;43.144;24.684;2022-09-13T09:09:53;1.95;;;1.60;;
22752;SDS011;11543;43.144;24.684;2022-09-13T09:15:26;6.20;;;1.80;;
22752;SDS011;11543;43.144;24.684;2022-09-13T09:18:09;2.92;;;1.60;;
22752;SDS011;11543;43.144;24.684;2022-09-13T09:20:46;3.35;;;1.70;;
22752;SDS011;11543;43.144;24.684;2022-09-13T09:23:24;3.40;;;1.60;;
22752;SDS011;11543;43.144;24.684;2022-09-13T09:26:18;3.60;;;1.40;;
22752;SDS011;11543;43.144;24.684;2022-09-13T09:31:26;5.07;;;1.50;;
22752;SDS011;11543;43.144;24.684;2022-09-13T09:36:51;5.15;;;1.58;;
22752;SDS011;11543;43.144;24.684;2022-09-13T09:39:26;3.42;;;1.30;;
22752;SDS011;11543;43.144;24.684;2022-09-13T09:41:57;3.20;;;1.48;;
22752;SDS011;11543;43.144;24.684;2022-09-13T09:44:27;1.52;;;1.15;;
22752;SDS011;11543;43.144;24.684;2022-09-13T09:47:14;2.63;;;1.23;;
22752;SDS011;11543;43.144;24.684;2022-09-13T09:49:46;1.52;;;1.10;;
22752;SDS011;11543;43.144;24.684;2022-09-13T09:55:14;2.67;;;1.17;;
22752;SDS011;11543;43.144;24.684;2022-09-13T09:58:14;5.63;;;1.15;;
22752;SDS011;11543;43.144;24.684;2022-09-13T10:00:53;3.90;;;1.23;;
22752;SDS011;11543;43.144;24.684;2022-09-13T10:03:23;1.60;;;1.20;;
22752;SDS011;11543;43.144;24.684;2022-09-13T10:06:02;5.63;;;1.10;;
22752;SDS011;11543;43.144;24.684;2022-09-13T10:08:35;1.95;;;1.30;;
22752;SDS011;11543;43.144;24.684;2022-09-13T10:11:03;2.67;;;1.35;;
22752;SDS011;11543;43.144;24.684;2022-09-13T10:13:30;4.38;;;1.30;;
22752;SDS011;11543;43.144;24.684;2022-09-13T10:15:59;1.98;;;1.13;;
22752;SDS011;11543;43.144;24.684;2022-09-13T10:18:34;2.03;;;1.23;;
22752;SDS011;11543;43.144;24.684;2022-09-13T10:21:21;4.03;;;1.20;;
22752;SDS011;11543;43.144;24.684;2022-09-13T10:23:49;1.65;;;0.98;;
22752;SDS011;11543;43.144;24.684;2022-09-13T10:26:16;3.15;;;1.10;;
22752;SDS011;11543;43.144;24.684;2022-09-13T10:36:40;3.30;;;1.23;;
22752;SDS011;11543;43.144;24.684;2022-09-13T10:39:16;6.25;;;1.42;;
22752;SDS011;11543;43.144;24.684;2022-09-13T10:41:48;2.13;;;1.10;;
22752;SDS011;11543;43.144;24.684;2022-09-13T10:50:22;1.15;;;0.85;;
22752;SDS011;11543;43.144;24.684;2022-09-13T10:53:00;2.95;;;1.02;;
22752;SDS011;11543;43.144;24.684;2022-09-13T10:55:31;1.52;;;0.80;;
22752;SDS011;11543;43.144;24.684;2022-09-13T11:03:38;1.40;;;1.00;;
22752;SDS011;11543;43.144;24.684;2022-09-13T11:06:35;2.88;;;1.08;;
22752;SDS011;11543;43.144;24.684;2022-09-13T11:09:34;3.05;;;1.00;;
22752;SDS011;11543;43.144;24.684;2022-09-13T11:12:18;3.90;;;0.93;;
22752;SDS011;11543;43.144;24.684;2022-09-13T11:16:12;2.35;;;0.90;;
22752;SDS011;11543;43.144;24.684;2022-09-13T11:20:44;2.05;;;0.80;;
22752;SDS011;11543;43.144;24.684;2022-09-13T11:23:22;1.77;;;0.93;;
22752;SDS011;11543;43.144;24.684;2022-09-13T11:37:39;1.27;;;0.90;;
22752;SDS011;11543;43.144;24.684;2022-09-13T11:45:47;2.00;;;0.80;;
22752;SDS011;11543;43.144;24.684;2022-09-13T11:51:42;1.73;;;0.90;;
22752;SDS011;11543;43.144;24.684;2022-09-13T11:57:13;1.83;;;1.00;;
22752;SDS011;11543;43.144;24.684;2022-09-13T11:59:48;1.70;;;1.00;;
22752;SDS011;11543;43.144;24.684;2022-09-13T12:05:23;2.38;;;1.00;;
22752;SDS011;11543;43.144;24.684;2022-09-13T12:08:03;2.97;;;0.97;;
22752;SDS011;11543;43.144;24.684;2022-09-13T12:13:08;3.63;;;0.80;;
22752;SDS011;11543;43.144;24.684;2022-09-13T12:15:42;6.43;;;0.85;;
22752;SDS011;11543;43.144;24.684;2022-09-13T12:18:33;5.25;;;0.80;;
22752;SDS011;11543;43.144;24.684;2022-09-13T12:21:16;4.53;;;0.70;;
22752;SDS011;11543;43.144;24.684;2022-09-13T12:29:27;3.17;;;0.77;;
22752;SDS011;11543;43.144;24.684;2022-09-13T12:32:04;2.88;;;0.80;;
22752;SDS011;11543;43.144;24.684;2022-09-13T12:50:57;1.92;;;0.80;;
22752;SDS011;11543;43.144;24.684;2022-09-13T13:02:22;2.83;;;0.80;;
22752;SDS011;11543;43.144;24.684;2022-09-13T13:05:19;2.15;;;0.82;;
22752;SDS011;11543;43.144;24.684;2022-09-13T13:07:59;1.33;;;0.80;;
22752;SDS011;11543;43.144;24.684;2022-09-13T13:10:28;1.30;;;0.80;;
22752;SDS011;11543;43.144;24.684;2022-09-13T13:13:07;1.70;;;0.90;;
22752;SDS011;11543;43.144;24.684;2022-09-13T13:15:54;1.75;;;0.75;;
22752;SDS011;11543;43.144;24.684;2022-09-13T13:26:50;2.15;;;0.60;;
22752;SDS011;11543;43.144;24.684;2022-09-13T13:29:21;2.17;;;0.60;;
22752;SDS011;11543;43.144;24.684;2022-09-13T13:36:53;2.80;;;0.80;;
22752;SDS011;11543;43.144;24.684;2022-09-13T13:41:59;1.10;;;0.80;;
22752;SDS011;11543;43.144;24.684;2022-09-13T13:54:56;3.17;;;0.73;;
22752;SDS011;11543;43.144;24.684;2022-09-13T13:59:49;0.90;;;0.60;;
22752;SDS011;11543;43.144;24.684;2022-09-13T14:02:26;5.18;;;1.02;;
22752;SDS011;11543;43.144;24.684;2022-09-13T14:05:10;2.35;;;0.70;;
22752;SDS011;11543;43.144;24.684;2022-09-13T14:08:10;2.55;;;0.60;;
22752;SDS011;11543;43.144;24.684;2022-09-13T14:13:49;1.65;;;0.70;;
22752;SDS011;11543;43.144;24.684;2022-09-13T14:21:24;1.58;;;0.60;;
22752;SDS011;11543;43.144;24.684;2022-09-13T14:26:38;2.42;;;0.70;;
22752;SDS011;11543;43.144;24.684;2022-09-13T14:29:07;2.20;;;0.70;;
22752;SDS011;11543;43.144;24.684;2022-09-13T14:31:34;2.05;;;0.60;;
22752;SDS011;11543;43.144;24.684;2022-09-13T14:34:00;1.30;;;0.70;;
22752;SDS011;11543;43.144;24.684;2022-09-13T14:36:27;2.17;;;0.70;;
22752;SDS011;11543;43.144;24.684;2022-09-13T14:38:56;2.92;;;0.70;;
22752;SDS011;11543;43.144;24.684;2022-09-13T14:41:33;1.17;;;0.70;;
22752;SDS011;11543;43.144;24.684;2022-09-13T14:44:13;2.95;;;0.90;;
22752;SDS011;11543;43.144;24.684;2022-09-13T14:46:41;1.30;;;0.70;;
22752;SDS011;11543;43.144;24.684;2022-09-13T14:49:09;4.13;;;0.80;;
22752;SDS011;11543;43.144;24.684;2022-09-13T14:51:47;1.40;;;0.90;;
22752;SDS011;11543;43.144;24.684;2022-09-13T14:57:14;3.90;;;0.70;;
22752;SDS011;11543;43.144;24.684;2022-09-13T15:00:06;2.83;;;0.80;;
22752;SDS011;11543;43.144;24.684;2022-09-13T15:02:45;1.25;;;0.80;;
22752;SDS011;11543;43.144;24.684;2022-09-13T15:05:13;2.20;;;0.90;;
22752;SDS011;11543;43.144;24.684;2022-09-13T15:07:42;1.55;;;0.70;;
22752;SDS011;11543;43.144;24.684;2022-09-13T15:15:38;1.30;;;0.80;;
22752;SDS011;11543;43.144;24.684;2022-09-13T15:18:22;2.65;;;1.00;;
22752;SDS011;11543;43.144;24.684;2022-09-13T15:20:56;1.63;;;0.80;;
22752;SDS011;11543;43.144;24.684;2022-09-13T15:23:28;1.13;;;0.90;;
22752;SDS011;11543;43.144;24.684;2022-09-13T15:26:04;2.35;;;0.90;;
22752;SDS011;11543;43.144;24.684;2022-09-13T15:28:32;2.75;;;0.80;;
22752;SDS011;11543;43.144;24.684;2022-09-13T15:31:25;1.10;;;0.90;;
22752;SDS011;11543;43.144;24.684;2022-09-13T15:36:45;3.40;;;0.82;;
22752;SDS011;11543;43.144;24.684;2022-09-13T15:39:15;1.90;;;0.80;;
22752;SDS011;11543;43.144;24.684;2022-09-13T15:41:54;2.95;;;1.00;;
22752;SDS011;11543;43.144;24.684;2022-09-13T15:44:25;1.60;;;0.90;;
22752;SDS011;11543;43.144;24.684;2022-09-13T15:46:53;3.78;;;0.90;;
22752;SDS011;11543;43.144;24.684;2022-09-13T15:49:23;1.48;;;0.80;;
22752;SDS011;11543;43.144;24.684;2022-09-13T15:51:52;1.00;;;0.85;;
22752;SDS011;11543;43.144;24.684;2022-09-13T15:54:19;2.28;;;0.93;;
22752;SDS011;11543;43.144;24.684;2022-09-13T15:56:46;1.88;;;1.20;;
22752;SDS011;11543;43.144;24.684;2022-09-13T15:59:16;3.38;;;0.90;;
22752;SDS011;11543;43.144;24.684;2022-09-13T16:01:43;1.58;;;0.85;;
22752;SDS011;11543;43.144;24.684;2022-09-13T16:04:09;2.15;;;0.75;;
22752;SDS011;11543;43.144;24.684;2022-09-13T16:06:36;1.42;;;0.90;;
22752;SDS011;11543;43.144;24.684;2022-09-13T16:09:21;2.25;;;1.00;;
22752;SDS011;11543;43.144;24.684;2022-09-13T16:11:49;2.42;;;0.80;;
22752;SDS011;11543;43.144;24.684;2022-09-13T16:14:16;2.13;;;0.80;;
22752;SDS011;11543;43.144;24.684;2022-09-13T16:16:42;1.40;;;0.80;;
22752;SDS011;11543;43.144;24.684;2022-09-13T16:19:17;2.47;;;0.80;;
22752;SDS011;11543;43.144;24.684;2022-09-13T16:21:44;1.50;;;0.90;;
22752;SDS011;11543;43.144;24.684;2022-09-13T16:24:10;0.98;;;0.80;;
22752;SDS011;11543;43.144;24.684;2022-09-13T16:26:36;1.60;;;0.80;;
22752;SDS011;11543;43.144;24.684;2022-09-13T16:29:02;2.38;;;0.95;;
22752;SDS011;11543;43.144;24.684;2022-09-13T16:31:28;4.22;;;0.90;;
22752;SDS011;11543;43.144;24.684;2022-09-13T16:33:53;2.78;;;0.95;;
22752;SDS011;11543;43.144;24.684;2022-09-13T16:36:19;2.47;;;1.00;;
22752;SDS011;11543;43.144;24.684;2022-09-13T16:38:45;2.75;;;1.00;;
22752;SDS011;11543;43.144;24.684;2022-09-13T16:41:13;4.07;;;1.40;;
22752;SDS011;11543;43.144;24.684;2022-09-13T16:43:39;4.45;;;1.20;;
22752;SDS011;11543;43.144;24.684;2022-09-13T16:46:06;4.13;;;1.40;;
22752;SDS011;11543;43.144;24.684;2022-09-13T16:48:33;3.70;;;1.25;;
22752;SDS011;11543;43.144;24.684;2022-09-13T16:51:02;1.95;;;1.30;;
22752;SDS011;11543;43.144;24.684;2022-09-13T16:53:32;4.82;;;1.10;;
22752;SDS011;11543;43.144;24.684;2022-09-13T16:56:14;2.75;;;0.90;;
22752;SDS011;11543;43.144;24.684;2022-09-13T16:58:42;1.30;;;0.93;;
22752;SDS011;11543;43.144;24.684;2022-09-13T17:01:11;4.13;;;0.90;;
22752;SDS011;11543;43.144;24.684;2022-09-13T17:03:48;3.30;;;1.02;;
22752;SDS011;11543;43.144;24.684;2022-09-13T17:06:14;1.45;;;0.90;;
22752;SDS011;11543;43.144;24.684;2022-09-13T17:08:49;2.88;;;0.90;;
22752;SDS011;11543;43.144;24.684;2022-09-13T17:11:18;3.13;;;0.90;;
22752;SDS011;11543;43.144;24.684;2022-09-13T17:13:45;1.55;;;0.93;;
22752;SDS011;11543;43.144;24.684;2022-09-13T17:19:06;1.60;;;1.10;;
22752;SDS011;11543;43.144;24.684;2022-09-13T17:21:47;8.85;;;1.20;;
22752;SDS011;11543;43.144;24.684;2022-09-13T17:24:13;3.55;;;1.00;;
22752;SDS011;11543;43.144;24.684;2022-09-13T17:26:43;2.88;;;0.80;;
22752;SDS011;11543;43.144;24.684;2022-09-13T17:29:10;2.00;;;0.80;;
22752;SDS011;11543;43.144;24.684;2022-09-13T17:31:36;5.10;;;1.10;;
22752;SDS011;11543;43.144;24.684;2022-09-13T17:34:09;2.08;;;0.80;;
22752;SDS011;11543;43.144;24.684;2022-09-13T17:36:43;4.63;;;0.90;;
22752;SDS011;11543;43.144;24.684;2022-09-13T17:39:09;2.30;;;1.02;;
22752;SDS011;11543;43.144;24.684;2022-09-13T17:41:35;2.65;;;0.90;;
22752;SDS011;11543;43.144;24.684;2022-09-13T17:44:00;2.28;;;0.90;;
22752;SDS011;11543;43.144;24.684;2022-09-13T17:46:29;1.77;;;0.80;;
22752;SDS011;11543;43.144;24.684;2022-09-13T17:48:57;1.52;;;0.90;;
22752;SDS011;11543;43.144;24.684;2022-09-13T17:51:28;2.83;;;1.10;;
22752;SDS011;11543;43.144;24.684;2022-09-13T17:53:59;1.80;;;0.93;;
22752;SDS011;11543;43.144;24.684;2022-09-13T17:56:31;2.58;;;1.27;;
22752;SDS011;11543;43.144;24.684;2022-09-13T17:59:19;2.00;;;1.35;;
22752;SDS011;11543;43.144;24.684;2022-09-13T18:01:47;2.60;;;1.35;;
22752;SDS011;11543;43.144;24.684;2022-09-13T18:04:15;5.47;;;1.30;;
22752;SDS011;11543;43.144;24.684;2022-09-13T18:06:41;5.95;;;1.20;;
22752;SDS011;11543;43.144;24.684;2022-09-13T18:09:08;3.03;;;1.20;;
22752;SDS011;11543;43.144;24.684;2022-09-13T18:11:38;4.40;;;1.10;;
22752;SDS011;11543;43.144;24.684;2022-09-13T18:14:04;1.75;;;1.02;;
22752;SDS011;11543;43.144;24.684;2022-09-13T18:16:31;4.65;;;1.35;;
22752;SDS011;11543;43.144;24.684;2022-09-13T18:18:57;1.98;;;1.17;;
22752;SDS011;11543;43.144;24.684;2022-09-13T18:21:24;4.13;;;1.10;;
22752;SDS011;11543;43.144;24.684;2022-09-13T18:23:52;3.78;;;1.10;;
22752;SDS011;11543;43.144;24.684;2022-09-13T18:26:20;2.40;;;1.08;;
22752;SDS011;11543;43.144;24.684;2022-09-13T18:28:51;3.90;;;1.30;;
22752;SDS011;11543;43.144;24.684;2022-09-13T18:31:25;2.45;;;1.10;;
22752;SDS011;11543;43.144;24.684;2022-09-13T18:33:53;2.25;;;1.20;;
22752;SDS011;11543;43.144;24.684;2022-09-13T18:36:21;3.40;;;1.10;;